Time;durP1;ratioP1;P1;durP2;ratioP2;P2;SDS_P1;SDS_P2;PMS_P1;PMS_P2;Temp;Humidity;BMP_temperature;BMP_pressure;BME280_temperature;BME280_humidity;BME280_pressure;Samples;Min_cycle;Max_cycle;Signal;HPM_P1;HPM_P2
2022/08/16 00:01:12;;;;;;;8.10;7.30;;;;;;;21.82;71.01;99853.72;5053154;28;20205;-79
2022/08/16 00:03:39;;;;;;;10.52;7.75;;;;;;;21.79;71.00;99843.25;5049024;28;20233;-81
2022/08/16 00:06:06;;;;;;;9.18;8.25;;;;;;;21.79;71.22;99842.41;5048818;28;20202;-80
2022/08/16 00:08:32;;;;;;;14.27;7.85;;;;;;;21.78;71.20;99847.00;5044404;28;20567;-80
2022/08/16 00:10:59;;;;;;;8.98;7.85;;;;;;;21.77;71.10;99847.19;5052150;28;20209;-80
2022/08/16 00:13:25;;;;;;;8.85;7.55;;;;;;;21.74;71.01;99844.84;5052509;28;20224;-80
2022/08/16 00:15:52;;;;;;;8.82;7.93;;;;;;;21.72;71.04;99841.47;5052563;28;20697;-79
2022/08/16 00:18:20;;;;;;;9.80;8.18;;;;;;;21.70;71.10;99846.25;5050501;28;20584;-80
2022/08/16 00:20:48;;;;;;;9.07;8.18;;;;;;;21.69;71.28;99850.81;5032606;28;20205;-79
2022/08/16 00:23:15;;;;;;;8.43;7.72;;;;;;;21.68;71.17;99849.13;5048427;28;20228;-79
2022/08/16 00:25:42;;;;;;;12.20;8.73;;;;;;;21.66;71.21;99855.81;5052430;28;20208;-80
2022/08/16 00:28:08;;;;;;;8.95;8.15;;;;;;;21.64;71.45;99849.72;5039319;28;20659;-81
2022/08/16 00:30:35;;;;;;;11.35;8.80;;;;;;;21.63;71.57;99856.16;5051844;28;20197;-80
2022/08/16 00:33:03;;;;;;;9.13;7.80;;;;;;;21.60;71.38;99860.09;5052107;28;20590;-80
2022/08/16 00:35:34;;;;;;;10.38;8.25;;;;;;;21.59;71.42;99858.41;5052158;28;20209;-80
2022/08/16 00:38:02;;;;;;;8.98;8.07;;;;;;;21.59;71.40;99854.84;5052137;28;20189;-81
2022/08/16 00:40:36;;;;;;;9.20;8.30;;;;;;;21.56;71.54;99853.34;5049863;28;20220;-80
2022/08/16 00:43:07;;;;;;;8.73;7.93;;;;;;;21.56;71.46;99863.34;5032271;28;20233;-80
2022/08/16 00:45:41;;;;;;;10.85;7.75;;;;;;;21.56;71.38;99860.66;5035069;28;20662;-81
2022/08/16 00:48:11;;;;;;;9.02;8.23;;;;;;;21.54;71.40;99857.28;5051666;28;20224;-80
2022/08/16 00:50:41;;;;;;;9.93;8.10;;;;;;;21.52;71.27;99862.88;5052941;28;20197;-81
2022/08/16 00:53:10;;;;;;;9.20;8.30;;;;;;;21.52;71.32;99859.34;5052295;28;20231;-81
2022/08/16 00:55:39;;;;;;;9.20;7.63;;;;;;;21.50;71.25;99858.72;5051812;28;20198;-81
2022/08/16 00:58:09;;;;;;;8.43;7.75;;;;;;;21.48;71.18;99853.47;5051784;28;20201;-80
2022/08/16 01:00:36;;;;;;;9.30;8.50;;;;;;;21.45;71.14;99849.25;5051503;28;20206;-79
2022/08/16 01:03:07;;;;;;;9.20;7.90;;;;;;;21.46;71.16;99859.06;5051028;28;20229;-80
2022/08/16 01:05:35;;;;;;;9.02;7.93;;;;;;;21.45;71.27;99857.38;5051148;28;20201;-81
2022/08/16 01:08:05;;;;;;;9.70;8.57;;;;;;;21.43;71.21;99848.59;5051065;28;20648;-79
2022/08/16 01:10:33;;;;;;;11.18;9.00;;;;;;;21.44;71.11;99860.28;5048043;28;20211;-81
2022/08/16 01:13:05;;;;;;;9.73;8.70;;;;;;;21.43;71.15;99864.03;5050065;28;20221;-81
2022/08/16 01:15:32;;;;;;;10.00;9.10;;;;;;;21.40;71.28;99862.50;5060706;28;20287;-80
2022/08/16 01:18:00;;;;;;;9.77;8.55;;;;;;;21.40;71.29;99864.38;5037462;28;20212;-80
2022/08/16 01:20:31;;;;;;;14.68;9.15;;;;;;;21.39;71.25;99854.56;5050986;28;20204;-80
2022/08/16 01:23:03;;;;;;;10.68;8.88;;;;;;;21.38;71.37;99866.44;5043829;28;20240;-80
2022/08/16 01:25:35;;;;;;;9.68;8.18;;;;;;;21.37;71.42;99876.44;5041711;28;20832;-80
2022/08/16 01:28:04;;;;;;;8.70;7.82;;;;;;;21.35;71.46;99866.81;5051021;28;20184;-81
2022/08/16 01:30:34;;;;;;;11.45;8.68;;;;;;;21.34;71.26;99867.81;5040017;28;20703;-80
2022/08/16 01:33:04;;;;;;;12.40;9.65;;;;;;;21.33;71.36;99879.69;5030585;28;20228;-80
2022/08/16 01:35:38;;;;;;;10.53;8.67;;;;;;;21.32;71.37;99875.28;5030893;28;20668;-80
2022/08/16 01:38:16;;;;;;;11.85;8.40;;;;;;;21.31;71.38;99873.63;5045525;28;20199;-80
2022/08/16 01:40:45;;;;;;;9.52;7.78;;;;;;;21.28;71.56;99872.13;5047600;28;20622;-79
2022/08/16 01:43:12;;;;;;;10.93;8.65;;;;;;;21.28;71.49;99876.72;5050598;28;20232;-80
2022/08/16 01:45:38;;;;;;;12.25;8.07;;;;;;;21.27;71.50;99886.69;5047874;28;20701;-81
2022/08/16 01:48:05;;;;;;;11.60;9.07;;;;;;;21.26;71.33;99884.19;5049977;28;20212;-80
2022/08/16 01:50:33;;;;;;;9.85;8.75;;;;;;;21.23;71.69;99885.38;5058244;28;20226;-81
2022/08/16 01:52:59;;;;;;;9.40;8.27;;;;;;;21.22;71.46;99881.00;5050163;28;20797;-79
2022/08/16 01:55:26;;;;;;;10.05;8.55;;;;;;;21.20;71.65;99879.47;5050354;28;20536;-80
2022/08/16 01:57:54;;;;;;;9.88;7.88;;;;;;;21.18;71.58;99885.06;5036681;28;20202;-80
2022/08/16 02:00:20;;;;;;;8.80;7.88;;;;;;;21.16;71.45;99884.38;5030412;28;20206;-80
2022/08/16 02:02:47;;;;;;;10.45;8.60;;;;;;;21.14;71.41;99886.44;5042267;28;20777;-80
2022/08/16 02:05:14;;;;;;;9.55;8.10;;;;;;;21.13;71.54;99893.75;5054281;28;20693;-80
2022/08/16 02:07:42;;;;;;;10.02;8.20;;;;;;;21.10;71.82;99886.00;5035028;28;20577;-80
2022/08/16 02:10:09;;;;;;;9.60;8.47;;;;;;;21.10;71.97;99890.56;5042472;28;20267;-81
2022/08/16 02:12:36;;;;;;;8.97;7.83;;;;;;;21.08;71.76;99896.16;5047421;28;20250;-80
2022/08/16 02:15:07;;;;;;;9.07;8.20;;;;;;;21.06;71.83;99887.38;5049889;28;20218;-81
2022/08/16 02:17:33;;;;;;;9.63;7.57;;;;;;;21.05;71.70;99890.25;5052397;28;20264;-81
2022/08/16 02:20:00;;;;;;;9.60;8.38;;;;;;;21.03;71.76;99889.59;5050622;28;20216;-79
2022/08/16 02:22:27;;;;;;;8.82;7.90;;;;;;;21.01;71.75;99886.22;5041496;28;20230;-79
2022/08/16 02:24:54;;;;;;;8.77;7.97;;;;;;;20.99;71.62;99891.81;5050591;28;20253;-80
2022/08/16 02:27:21;;;;;;;9.63;8.02;;;;;;;20.98;71.68;99894.72;5050157;28;20215;-81
2022/08/16 02:29:47;;;;;;;10.48;8.05;;;;;;;20.96;71.44;99892.19;5050081;28;20211;-80
2022/08/16 02:32:16;;;;;;;8.90;7.38;;;;;;;20.95;71.45;99892.38;5045160;28;20540;-80
2022/08/16 02:34:44;;;;;;;10.43;7.55;;;;;;;20.93;71.67;99894.44;5044005;28;20205;-80
2022/08/16 02:37:11;;;;;;;10.20;8.18;;;;;;;20.92;71.94;99896.31;5050911;28;20221;-81
2022/08/16 02:39:38;;;;;;;9.80;8.80;;;;;;;20.91;71.96;99896.47;5044467;28;20655;-79
2022/08/16 02:42:05;;;;;;;9.47;7.87;;;;;;;20.90;71.97;99900.22;5050973;28;20208;-79
2022/08/16 02:44:31;;;;;;;8.93;7.70;;;;;;;20.89;72.01;99895.81;5053800;28;20230;-81
2022/08/16 02:46:58;;;;;;;11.30;8.73;;;;;;;20.84;72.23;99899.06;5053908;28;20211;-80
2022/08/16 02:49:25;;;;;;;9.27;8.40;;;;;;;20.78;72.26;99903.31;5053910;28;20200;-80
2022/08/16 02:51:52;;;;;;;10.27;9.10;;;;;;;20.72;72.58;99914.03;5053573;28;20208;-80
2022/08/16 02:54:19;;;;;;;11.33;9.20;;;;;;;20.65;73.25;99908.50;5053470;28;20255;-80
2022/08/16 02:56:46;;;;;;;10.43;9.37;;;;;;;20.60;73.77;99919.00;5048763;28;20240;-80
2022/08/16 02:59:13;;;;;;;11.30;10.27;;;;;;;20.56;74.10;99912.28;5049890;28;20202;-80
2022/08/16 03:01:40;;;;;;;11.83;10.57;;;;;;;20.52;74.32;99910.97;5044465;28;20216;-80
2022/08/16 03:04:07;;;;;;;12.00;9.33;;;;;;;20.51;74.41;99913.84;5035937;28;20234;-80
2022/08/16 03:06:35;;;;;;;11.47;10.37;;;;;;;20.48;74.59;99908.78;5060371;28;20208;-80
2022/08/16 03:09:02;;;;;;;13.88;11.10;;;;;;;20.45;74.69;99901.88;5053431;28;20836;-80
2022/08/16 03:11:30;;;;;;;12.07;11.00;;;;;;;20.43;74.63;99909.31;5053530;28;20671;-80
2022/08/16 03:13:56;;;;;;;11.40;10.23;;;;;;;20.40;74.78;99909.69;5052532;28;20306;-80
2022/08/16 03:16:24;;;;;;;11.50;10.37;;;;;;;20.39;75.06;99910.72;5054340;28;20207;-81
2022/08/16 03:18:52;;;;;;;10.53;9.47;;;;;;;20.36;74.93;99903.78;5054173;28;20220;-80
2022/08/16 03:21:19;;;;;;;10.17;9.27;;;;;;;20.35;74.90;99906.66;5053663;28;20675;-79
2022/08/16 03:23:47;;;;;;;9.17;8.17;;;;;;;20.34;74.84;99904.97;5062981;28;20237;-82
2022/08/16 03:26:14;;;;;;;10.40;7.87;;;;;;;20.32;74.78;99901.59;5055248;28;20210;-81
2022/08/16 03:28:40;;;;;;;7.80;7.10;;;;;;;20.31;74.69;99910.72;5054952;28;20214;-81
2022/08/16 03:31:07;;;;;;;10.50;7.00;;;;;;;20.29;74.25;99916.31;5056633;28;20780;-82
2022/08/16 03:33:33;;;;;;;10.00;7.00;;;;;;;20.28;74.25;99916.47;5054314;28;20211;-79
2022/08/16 03:36:00;;;;;;;7.83;7.10;;;;;;;20.28;74.46;99913.78;5054836;28;20624;-79
2022/08/16 03:38:28;;;;;;;13.17;7.10;;;;;;;20.27;74.27;99909.38;5052996;28;20203;-81
2022/08/16 03:40:58;;;;;;;7.53;6.83;;;;;;;20.26;73.99;99913.09;5048424;28;20206;-80
2022/08/16 03:43:29;;;;;;;8.43;7.10;;;;;;;20.25;74.01;99909.56;5050802;28;20234;-79
2022/08/16 03:45:57;;;;;;;9.37;8.30;;;;;;;20.23;74.14;99902.66;5049753;28;20302;-80
2022/08/16 03:48:26;;;;;;;10.17;9.20;;;;;;;20.16;74.12;99902.53;5055218;28;20214;-80
2022/08/16 03:50:53;;;;;;;11.67;10.47;;;;;;;20.13;74.33;99904.72;5054402;28;20207;-80
2022/08/16 03:53:20;;;;;;;12.20;10.70;;;;;;;20.07;74.93;99907.09;5053710;28;20242;-80
2022/08/16 03:55:46;;;;;;;12.20;10.80;;;;;;;20.03;75.02;99908.50;5054280;28;20566;-80
2022/08/16 03:58:14;;;;;;;10.37;9.17;;;;;;;19.99;75.42;99907.16;5051977;28;20200;-81
2022/08/16 04:00:41;;;;;;;9.43;8.43;;;;;;;19.97;75.46;99913.75;5052558;28;20206;-80
2022/08/16 04:03:07;;;;;;;10.70;9.67;;;;;;;19.96;75.68;99914.78;5057419;28;20751;-80
2022/08/16 04:05:35;;;;;;;10.97;9.83;;;;;;;19.94;75.81;99914.94;5055099;28;20224;-82
2022/08/16 04:08:02;;;;;;;12.53;11.03;;;;;;;19.93;76.04;99913.25;5065206;28;20353;-79
2022/08/16 04:10:29;;;;;;;10.67;8.93;;;;;;;19.92;75.99;99914.28;5054334;28;20221;-82
2022/08/16 04:12:56;;;;;;;10.43;9.37;;;;;;;19.93;75.81;99917.81;5053785;28;20223;-81
2022/08/16 04:15:24;;;;;;;10.33;9.43;;;;;;;19.92;76.18;99913.44;5051031;28;20199;-83
2022/08/16 04:17:51;;;;;;;9.87;8.87;;;;;;;19.92;76.12;99916.97;5049818;28;20206;-79
2022/08/16 04:20:18;;;;;;;11.00;9.87;;;;;;;19.88;75.93;99912.13;5049506;28;20656;-80
2022/08/16 04:22:44;;;;;;;11.67;10.47;;;;;;;19.82;76.11;99912.81;5055329;28;20221;-81
2022/08/16 04:25:12;;;;;;;9.90;9.00;;;;;;;19.76;76.17;99917.03;5048542;28;20599;-80
2022/08/16 04:27:39;;;;;;;9.67;8.87;;;;;;;19.71;76.50;99922.97;5050212;28;20215;-80
2022/08/16 04:30:10;;;;;;;10.33;9.30;;;;;;;19.69;76.90;99916.91;5053689;28;20220;-80
2022/08/16 04:32:38;;;;;;;10.70;9.70;;;;;;;19.67;77.36;99918.94;5053991;28;20236;-79
2022/08/16 04:35:08;;;;;;;9.23;8.37;;;;;;;19.68;77.44;99917.09;5042481;28;20709;-80
2022/08/16 04:37:35;;;;;;;9.23;8.30;;;;;;;19.66;77.78;99927.22;5043154;28;20209;-81
2022/08/16 04:40:02;;;;;;;9.77;8.77;;;;;;;19.66;77.37;99932.63;5047359;28;20221;-81
2022/08/16 04:42:28;;;;;;;9.53;8.57;;;;;;;19.64;77.66;99934.66;5053536;28;20335;-80
2022/08/16 04:44:56;;;;;;;10.73;8.70;;;;;;;19.60;77.77;99931.44;5055998;28;20235;-79
2022/08/16 04:47:25;;;;;;;10.00;9.00;;;;;;;19.57;78.07;99933.63;5052854;28;20204;-80
2022/08/16 04:49:53;;;;;;;10.33;8.77;;;;;;;19.54;78.28;99931.28;5059956;28;20211;-81
2022/08/16 04:52:20;;;;;;;10.13;8.57;;;;;;;19.50;78.60;99927.25;5065206;28;20201;-80
2022/08/16 04:54:46;;;;;;;12.60;9.23;;;;;;;19.50;79.10;99927.25;5046339;28;20304;-80
2022/08/16 04:57:13;;;;;;;9.73;8.80;;;;;;;19.49;79.37;99929.09;5045379;28;20207;-82
2022/08/16 04:59:39;;;;;;;9.43;8.60;;;;;;;19.51;79.41;99937.03;5052209;28;20555;-80
2022/08/16 05:02:06;;;;;;;9.27;8.30;;;;;;;19.52;79.20;99927.94;5049880;28;20689;-83
2022/08/16 05:04:33;;;;;;;10.97;9.20;;;;;;;19.55;79.46;99935.66;5050386;28;20232;-82
2022/08/16 05:07:01;;;;;;;10.03;9.03;;;;;;;19.56;79.60;99942.75;5051677;28;20961;-81
2022/08/16 05:09:27;;;;;;;9.70;8.63;;;;;;;19.59;79.81;99943.25;5052771;28;20370;-82
2022/08/16 05:11:54;;;;;;;10.70;8.63;;;;;;;19.60;79.56;99944.94;5053577;28;20610;-81
2022/08/16 05:14:21;;;;;;;9.03;7.80;;;;;;;19.62;79.37;99942.91;5051072;28;20737;-81
2022/08/16 05:16:47;;;;;;;9.73;8.57;;;;;;;19.65;79.74;99949.84;5048032;28;20212;-82
2022/08/16 05:19:14;;;;;;;10.80;8.93;;;;;;;19.68;79.41;99947.66;5044501;28;20221;-82
2022/08/16 05:21:40;;;;;;;11.47;9.90;;;;;;;19.71;79.54;99957.22;5038340;28;20219;-80
2022/08/16 05:24:09;;;;;;;13.33;10.37;;;;;;;19.73;79.70;99956.06;5050345;28;20251;-80
2022/08/16 05:26:36;;;;;;;11.63;10.47;;;;;;;19.76;79.69;99958.41;5049607;28;20246;-80
2022/08/16 05:29:05;;;;;;;10.27;9.27;;;;;;;19.80;79.94;99961.63;5050585;28;20286;-81
2022/08/16 05:31:32;;;;;;;9.70;8.77;;;;;;;19.84;80.04;99962.13;5046311;28;20212;-80
2022/08/16 05:34:00;;;;;;;12.10;8.63;;;;;;;19.88;80.08;99964.31;5042546;28;20235;-82
2022/08/16 05:36:26;;;;;;;10.73;7.83;;;;;;;19.93;79.82;99971.88;5054185;28;20203;-81
2022/08/16 05:38:53;;;;;;;8.00;7.23;;;;;;;19.96;79.48;99976.94;5054227;28;20223;-82
2022/08/16 05:41:21;;;;;;;8.73;7.83;;;;;;;20.02;79.46;99981.66;5043413;28;20564;-82
2022/08/16 05:43:47;;;;;;;9.17;7.63;;;;;;;20.06;78.93;99983.00;5050751;28;20230;-81
2022/08/16 05:46:18;;;;;;;7.67;6.80;;;;;;;20.10;78.68;99977.06;5042825;28;20205;-82
2022/08/16 05:48:45;;;;;;;8.63;6.83;;;;;;;20.17;78.38;99984.47;5050849;28;20239;-82
2022/08/16 05:51:12;;;;;;;8.07;7.27;;;;;;;20.25;78.25;99976.31;5051796;28;20241;-82
2022/08/16 05:53:38;;;;;;;7.70;6.93;;;;;;;20.34;78.07;99981.53;5048876;28;20235;-81
2022/08/16 05:56:05;;;;;;;8.40;6.67;;;;;;;20.42;77.73;99984.19;5047534;28;20762;-82
2022/08/16 05:58:33;;;;;;;10.13;6.87;;;;;;;20.53;77.38;99985.69;5042502;28;20215;-80
2022/08/16 06:00:59;;;;;;;8.57;7.13;;;;;;;20.63;77.27;99989.00;5039981;28;20226;-81
2022/08/16 06:03:26;;;;;;;8.07;7.27;;;;;;;20.74;76.85;99979.66;5037995;28;20314;-81
2022/08/16 06:05:53;;;;;;;9.38;8.00;;;;;;;20.85;76.65;99994.63;5041645;28;20225;-81
2022/08/16 06:08:19;;;;;;;8.30;7.53;;;;;;;20.96;76.69;99988.81;5051057;28;20207;-81
2022/08/16 06:10:46;;;;;;;8.35;6.90;;;;;;;21.07;76.58;99989.22;5040429;28;20327;-81
2022/08/16 06:13:12;;;;;;;8.10;7.35;;;;;;;21.19;76.18;100002.34;5046789;28;20283;-81
2022/08/16 06:15:40;;;;;;;8.40;7.60;;;;;;;21.26;75.68;99990.63;5055221;28;20671;-81
2022/08/16 06:18:07;;;;;;;7.90;7.28;;;;;;;21.36;75.60;99996.63;5048245;28;20604;-80
2022/08/16 06:20:33;;;;;;;8.48;7.63;;;;;;;21.47;75.20;100000.78;5047049;28;20205;-81
2022/08/16 06:23:00;;;;;;;9.70;7.28;;;;;;;21.58;74.43;99996.78;5053611;28;20722;-81
2022/08/16 06:25:27;;;;;;;7.45;6.75;;;;;;;21.69;73.27;100004.47;5053593;28;20232;-81
2022/08/16 06:27:54;;;;;;;7.43;6.82;;;;;;;21.72;71.99;99995.97;5051017;28;20205;-83
2022/08/16 06:30:21;;;;;;;10.02;7.40;;;;;;;21.73;71.37;100006.63;5059212;28;20201;-81
2022/08/16 06:32:49;;;;;;;8.43;7.20;;;;;;;21.77;71.22;100007.94;5058919;28;20228;-81
2022/08/16 06:35:16;;;;;;;7.43;6.80;;;;;;;21.79;70.89;100008.59;5043118;28;20678;-82
2022/08/16 06:37:42;;;;;;;8.10;6.90;;;;;;;21.82;70.31;100012.81;5050732;28;20707;-81
2022/08/16 06:40:11;;;;;;;7.18;6.40;;;;;;;21.81;70.24;100014.69;5051955;28;20570;-83
2022/08/16 06:42:38;;;;;;;8.43;7.07;;;;;;;21.82;70.14;100016.38;5042190;28;20222;-81
2022/08/16 06:45:06;;;;;;;8.48;7.05;;;;;;;21.87;70.51;100013.09;5053912;28;20243;-83
2022/08/16 06:47:32;;;;;;;12.15;7.35;;;;;;;21.94;70.88;100024.88;5041513;28;20220;-82
2022/08/16 06:50:00;;;;;;;7.32;6.60;;;;;;;22.07;71.09;100021.53;5053516;28;20761;-80
2022/08/16 06:52:33;;;;;;;7.13;6.53;;;;;;;22.17;70.72;100014.00;5053331;28;20263;-81
2022/08/16 06:54:59;;;;;;;7.38;6.68;;;;;;;22.29;70.34;100026.03;5054257;28;20675;-81
2022/08/16 06:57:26;;;;;;;7.03;5.68;;;;;;;22.42;69.82;100028.09;5052702;28;20639;-81
2022/08/16 06:59:52;;;;;;;7.97;6.00;;;;;;;22.55;68.83;100031.00;5055629;28;20215;-83
2022/08/16 07:02:19;;;;;;;7.07;6.40;;;;;;;22.66;67.95;100041.34;5048785;28;20213;-83
2022/08/16 07:04:45;;;;;;;5.95;5.45;;;;;;;22.79;67.34;100038.81;5042094;28;20226;-81
2022/08/16 07:07:13;;;;;;;5.68;4.53;;;;;;;22.90;64.88;100036.66;5042200;28;20210;-81
2022/08/16 07:09:40;;;;;;;6.13;4.82;;;;;;;22.91;64.42;100038.34;5046519;28;20776;-83
2022/08/16 07:12:07;;;;;;;5.70;4.53;;;;;;;22.94;64.33;100038.78;5046637;28;20213;-81
2022/08/16 07:14:34;;;;;;;5.75;4.65;;;;;;;22.99;63.79;100035.50;5047026;28;20293;-82
2022/08/16 07:17:02;;;;;;;4.90;4.50;;;;;;;23.02;63.08;100043.25;5050721;28;20688;-81
2022/08/16 07:19:31;;;;;;;5.20;4.75;;;;;;;23.04;62.93;100043.91;5053607;28;20207;-82
2022/08/16 07:22:02;;;;;;;4.70;4.30;;;;;;;23.08;62.77;100042.50;5054421;28;20617;-80
2022/08/16 07:24:30;;;;;;;4.43;4.03;;;;;;;23.17;62.88;100047.59;5045260;28;20226;-81
2022/08/16 07:26:57;;;;;;;7.75;4.60;;;;;;;23.32;62.94;100044.81;5047155;28;20556;-81
2022/08/16 07:29:24;;;;;;;5.00;4.30;;;;;;;23.45;62.36;100047.69;5045839;28;20215;-81
2022/08/16 07:31:51;;;;;;;7.60;4.55;;;;;;;23.57;61.53;100045.31;5051976;28;20683;-82
2022/08/16 07:34:18;;;;;;;4.85;3.92;;;;;;;23.69;61.13;100048.31;5052526;28;20225;-82
2022/08/16 07:36:45;;;;;;;4.72;4.13;;;;;;;23.80;61.20;100048.66;5038747;28;20202;-81
2022/08/16 07:39:11;;;;;;;5.63;4.10;;;;;;;23.89;60.68;100050.16;5043480;28;20286;-83
2022/08/16 07:41:39;;;;;;;5.03;4.32;;;;;;;23.97;60.42;100042.91;5049623;28;20212;-81
2022/08/16 07:44:06;;;;;;;6.20;4.63;;;;;;;24.03;60.01;100048.38;5052092;28;20688;-82
2022/08/16 07:46:33;;;;;;;6.18;4.60;;;;;;;;;;5050833;28;20323;-80
2022/08/16 07:48:59;;;;;;;7.45;4.90;;;;;;;24.18;59.09;100048.28;5057009;28;20231;-81
2022/08/16 07:51:26;;;;;;;5.00;4.50;;;;;;;24.19;58.87;100056.22;5059885;28;20209;-81
2022/08/16 07:53:52;;;;;;;5.55;4.80;;;;;;;24.23;58.56;100054.81;5053875;28;20221;-82
2022/08/16 07:56:19;;;;;;;5.93;5.05;;;;;;;24.26;58.27;100064.47;5046414;28;20220;-81
2022/08/16 07:58:47;;;;;;;5.63;5.10;;;;;;;24.28;58.40;100067.84;5054747;28;20210;-82
2022/08/16 08:01:13;;;;;;;6.20;4.85;;;;;;;24.31;58.56;100055.72;5054952;28;20214;-81
2022/08/16 08:03:43;;;;;;;6.97;5.13;;;;;;;24.35;58.01;100062.44;5063072;28;20236;-82
2022/08/16 08:06:10;;;;;;;6.47;4.88;;;;;;;24.36;57.93;100058.69;5052240;28;20222;-81
2022/08/16 08:08:38;;;;;;;5.88;4.60;;;;;;;24.37;57.99;100057.63;5054835;28;20201;-81
2022/08/16 08:11:05;;;;;;;7.63;4.75;;;;;;;24.43;58.27;100056.81;5056766;28;20201;-80
2022/08/16 08:13:31;;;;;;;6.50;5.00;;;;;;;24.54;58.27;100059.00;5049510;28;20312;-81
2022/08/16 08:15:59;;;;;;;5.85;4.90;;;;;;;24.70;57.89;100053.19;5055034;28;20201;-81
2022/08/16 08:18:26;;;;;;;5.65;4.63;;;;;;;24.83;57.43;100055.97;5051119;28;20206;-81
2022/08/16 08:20:52;;;;;;;5.63;5.07;;;;;;;24.98;56.69;100053.13;5051389;28;20212;-82
2022/08/16 08:23:19;;;;;;;5.15;4.60;;;;;;;25.11;56.32;100055.88;5047119;28;20235;-81
2022/08/16 08:25:47;;;;;;;5.10;4.57;;;;;;;25.27;56.37;100060.09;5051494;28;20221;-81
2022/08/16 08:28:14;;;;;;;5.38;4.55;;;;;;;25.44;55.73;100060.56;5043266;28;20206;-82
2022/08/16 08:30:41;;;;;;;5.15;4.65;;;;;;;25.56;55.21;100057.00;5037699;28;20197;-81
2022/08/16 08:33:09;;;;;;;5.18;4.68;;;;;;;25.67;54.29;100055.56;5041612;28;20221;-82
2022/08/16 08:35:36;;;;;;;4.85;4.45;;;;;;;25.78;54.05;100057.69;5047939;28;20774;-81
2022/08/16 08:38:05;;;;;;;4.72;4.30;;;;;;;25.89;53.23;100059.75;5044726;28;20208;-80
2022/08/16 08:40:32;;;;;;;4.88;4.43;;;;;;;25.97;53.68;100053.25;5053246;28;20266;-81
2022/08/16 08:43:00;;;;;;;4.78;4.40;;;;;;;26.10;53.57;100060.59;5050330;28;20721;-81
2022/08/16 08:45:27;;;;;;;4.60;4.18;;;;;;;26.22;53.21;100048.78;5050746;28;20225;-81
2022/08/16 08:47:56;;;;;;;7.82;5.00;;;;;;;26.38;52.63;100057.59;5050642;28;20205;-81
2022/08/16 08:50:24;;;;;;;9.45;4.68;;;;;;;26.47;51.35;100061.81;5051103;28;20201;-81
2022/08/16 08:52:52;;;;;;;6.30;4.18;;;;;;;26.56;51.76;100063.22;5041874;28;20224;-82
2022/08/16 08:55:21;;;;;;;4.97;4.47;;;;;;;26.66;51.63;100060.91;5047611;28;20205;-82
2022/08/16 08:57:49;;;;;;;4.63;4.32;;;;;;;26.81;51.54;100069.66;5050810;28;20209;-82
2022/08/16 09:00:18;;;;;;;5.15;4.65;;;;;;;26.98;51.26;100066.47;5044782;28;20292;-82
2022/08/16 09:02:46;;;;;;;4.60;4.20;;;;;;;27.09;50.39;100068.50;5041800;28;20240;-83
2022/08/16 09:05:14;;;;;;;6.05;4.03;;;;;;;27.16;50.06;100067.41;5050929;28;20236;-81
2022/08/16 09:07:42;;;;;;;4.50;4.10;;;;;;;27.28;49.44;100060.19;5054879;28;20639;-82
2022/08/16 09:10:09;;;;;;;4.63;4.22;;;;;;;27.38;48.94;100056.97;5050903;28;20201;-82
2022/08/16 09:12:39;;;;;;;4.90;3.80;;;;;;;27.50;48.65;100052.47;5052635;28;20327;-82
2022/08/16 09:15:08;;;;;;;6.53;3.78;;;;;;;27.60;48.81;100069.25;5054067;28;20576;-82
2022/08/16 09:17:36;;;;;;;6.63;4.03;;;;;;;27.69;48.18;100063.50;5052090;28;20303;-81
2022/08/16 09:20:03;;;;;;;4.30;3.95;;;;;;;27.78;47.72;100070.38;5053285;28;20625;-82
2022/08/16 09:22:29;;;;;;;4.65;4.10;;;;;;;27.88;47.67;100067.97;5069410;28;20682;-82
2022/08/16 09:24:57;;;;;;;4.53;4.13;;;;;;;27.99;47.21;100067.22;5058755;28;20201;-81
2022/08/16 09:27:24;;;;;;;4.60;4.20;;;;;;;28.13;46.98;100070.69;5050598;28;20300;-81
2022/08/16 09:29:52;;;;;;;4.60;4.18;;;;;;;28.19;45.96;100064.31;5048936;28;20803;-82
2022/08/16 09:32:18;;;;;;;4.22;3.75;;;;;;;28.28;46.30;100063.84;5051124;28;20213;-81
2022/08/16 09:34:45;;;;;;;4.05;3.75;;;;;;;28.36;46.35;100073.66;5041338;28;20585;-80
2022/08/16 09:37:14;;;;;;;6.82;4.97;;;;;;;28.44;46.11;100064.31;5048774;28;20728;-83
2022/08/16 09:39:41;;;;;;;4.47;4.13;;;;;;;28.57;45.91;100064.16;5046412;28;20205;-81
2022/08/16 09:42:09;;;;;;;3.95;3.38;;;;;;;28.65;44.86;100069.34;5050262;28;20652;-82
2022/08/16 09:44:35;;;;;;;4.80;4.07;;;;;;;28.71;44.53;100059.34;5050255;28;20715;-82
2022/08/16 09:47:03;;;;;;;5.03;3.90;;;;;;;28.73;44.74;100069.00;5037534;28;20217;-81
2022/08/16 09:49:30;;;;;;;4.72;3.75;;;;;;;28.79;44.82;100070.00;5047078;28;20225;-82
2022/08/16 09:51:56;;;;;;;4.63;3.60;;;;;;;28.81;44.55;100068.75;5050113;28;20566;-83
2022/08/16 09:54:25;;;;;;;4.90;3.85;;;;;;;28.88;44.25;100069.47;5042144;28;20229;-83
2022/08/16 09:56:52;;;;;;;6.72;4.18;;;;;;;28.93;43.83;100066.88;5050539;28;20288;-82
2022/08/16 09:59:21;;;;;;;6.53;3.72;;;;;;;29.00;43.90;100064.91;5050368;28;20694;-82
2022/08/16 10:01:48;;;;;;;4.45;3.50;;;;;;;29.06;43.63;100065.88;5033729;28;20214;-82
2022/08/16 10:04:15;;;;;;;4.35;4.03;;;;;;;29.12;43.45;100073.16;5051678;28;20253;-82
2022/08/16 10:06:44;;;;;;;4.18;3.78;;;;;;;29.16;42.96;100057.09;5052781;28;20237;-82
2022/08/16 10:09:12;;;;;;;4.05;3.65;;;;;;;29.21;42.41;100066.28;5052014;28;20208;-81
2022/08/16 10:14:29;;;;;;;4.05;3.58;;;;;;;29.31;42.55;100060.25;5040808;28;20244;-82
2022/08/16 10:16:57;;;;;;;4.63;3.83;;;;;;;29.35;43.41;100064.19;5037050;28;20284;-81
2022/08/16 10:19:24;;;;;;;5.00;3.80;;;;;;;29.44;43.01;100073.78;5050792;28;20205;-82
2022/08/16 10:21:51;;;;;;;4.40;3.55;;;;;;;29.52;41.67;100061.66;5043247;28;20201;-82
2022/08/16 10:24:18;;;;;;;3.92;3.45;;;;;;;29.60;41.60;100064.88;5046399;28;20284;-83
2022/08/16 10:26:45;;;;;;;3.58;3.28;;;;;;;29.71;41.17;100063.25;5051039;28;20236;-84
2022/08/16 10:29:13;;;;;;;4.18;3.70;;;;;;;29.72;40.68;100064.09;5047278;28;20194;-83
2022/08/16 10:31:41;;;;;;;3.83;3.47;;;;;;;29.69;40.42;100065.38;5050572;28;20204;-83
2022/08/16 10:34:08;;;;;;;4.90;3.45;;;;;;;29.72;40.72;100066.84;5039972;28;20229;-84
2022/08/16 10:36:35;;;;;;;4.90;3.35;;;;;;;29.77;41.12;100061.44;5051226;28;20209;-81
2022/08/16 10:39:02;;;;;;;4.47;3.75;;;;;;;29.81;40.54;100059.91;5049913;28;20209;-82
2022/08/16 10:41:28;;;;;;;3.67;3.08;;;;;;;29.82;39.94;100061.59;5038928;28;20205;-82
2022/08/16 10:43:55;;;;;;;4.10;3.47;;;;;;;29.85;40.15;100072.09;5046150;28;20222;-83
2022/08/16 10:46:21;;;;;;;3.95;3.50;;;;;;;29.88;40.10;100060.63;5045438;28;20306;-82
2022/08/16 10:48:49;;;;;;;5.05;3.80;;;;;;;29.92;40.34;100072.78;5041331;28;20297;-82
2022/08/16 10:51:16;;;;;;;4.40;3.67;;;;;;;29.95;40.28;100069.59;5043855;28;20214;-82
2022/08/16 10:53:43;;;;;;;4.85;3.63;;;;;;;29.97;40.56;100071.06;5049550;28;20222;-84
2022/08/16 10:56:11;;;;;;;3.70;3.40;;;;;;;29.99;40.11;100079.06;5049718;28;20206;-82
2022/08/16 10:58:39;;;;;;;3.75;3.45;;;;;;;29.99;39.78;100063.41;5049610;28;20209;-82
2022/08/16 11:01:08;;;;;;;3.85;3.45;;;;;;;29.97;39.44;100065.56;5049598;28;20805;-82
2022/08/16 11:03:35;;;;;;;3.45;3.15;;;;;;;30.02;39.04;100062.94;5051404;28;20648;-82
2022/08/16 11:06:05;;;;;;;5.05;3.33;;;;;;;30.11;38.56;100057.91;5059684;28;20225;-82
2022/08/16 11:08:32;;;;;;;3.80;3.50;;;;;;;30.18;38.99;100066.88;5050669;28;20198;-82
2022/08/16 11:11:00;;;;;;;3.92;3.63;;;;;;;30.27;39.17;100059.13;5047988;28;20202;-81
2022/08/16 11:13:26;;;;;;;4.00;3.65;;;;;;;30.39;39.12;100059.94;5048776;28;20224;-82
2022/08/16 11:15:55;;;;;;;3.55;3.25;;;;;;;30.48;38.32;100071.38;5044498;28;20725;-82
2022/08/16 11:18:22;;;;;;;3.38;3.17;;;;;;;30.52;38.22;100067.09;5053474;28;20255;-82
2022/08/16 11:20:49;;;;;;;3.50;3.20;;;;;;;30.56;38.24;100068.31;5051933;28;20692;-82
2022/08/16 11:23:16;;;;;;;3.78;3.38;;;;;;;30.63;38.60;100075.34;5050711;28;20213;-83
2022/08/16 11:25:43;;;;;;;3.92;3.53;;;;;;;30.72;38.12;100068.41;5052033;28;20711;-82
2022/08/16 11:28:11;;;;;;;3.60;3.30;;;;;;;30.81;37.93;100063.38;5041210;28;20202;-82
2022/08/16 11:30:38;;;;;;;4.97;3.22;;;;;;;30.86;37.32;100057.94;5056083;28;20588;-82